sensor_id;sensor_type;location;lat;lon;timestamp;pressure;altitude;pressure_sealevel;temperature;humidity
40117;BME280;25829;50.228;18.936;2023-02-04T00:02:19;97786.72;;;2.37;81.86
40117;BME280;25829;50.228;18.936;2023-02-04T00:05:19;97780.53;;;2.38;81.91
40117;BME280;25829;50.228;18.936;2023-02-04T00:08:21;97777.94;;;2.38;81.79
40117;BME280;25829;50.228;18.936;2023-02-04T00:11:22;97782.19;;;2.39;81.62
40117;BME280;25829;50.228;18.936;2023-02-04T00:14:23;97782.00;;;2.40;81.83
40117;BME280;25829;50.228;18.936;2023-02-04T00:17:23;97773.72;;;2.37;81.74
40117;BME280;25829;50.228;18.936;2023-02-04T00:20:26;97773.72;;;2.37;82.09
40117;BME280;25829;50.228;18.936;2023-02-04T00:23:27;97773.38;;;2.40;81.87
40117;BME280;25829;50.228;18.936;2023-02-04T00:26:28;97773.66;;;2.45;81.78
40117;BME280;25829;50.228;18.936;2023-02-04T00:29:29;97772.03;;;2.44;81.78
40117;BME280;25829;50.228;18.936;2023-02-04T00:32:30;97775.63;;;2.43;81.77
40117;BME280;25829;50.228;18.936;2023-02-04T00:35:30;97777.59;;;2.41;81.79
40117;BME280;25829;50.228;18.936;2023-02-04T00:38:31;97775.16;;;2.39;81.72
40117;BME280;25829;50.228;18.936;2023-02-04T00:41:32;97779.56;;;2.39;81.38
40117;BME280;25829;50.228;18.936;2023-02-04T00:44:33;97780.88;;;2.35;81.83
40117;BME280;25829;50.228;18.936;2023-02-04T00:47:36;97787.72;;;2.36;81.61
40117;BME280;25829;50.228;18.936;2023-02-04T00:50:40;97782.66;;;2.34;81.94
40117;BME280;25829;50.228;18.936;2023-02-04T00:53:41;97781.88;;;2.34;81.77
40117;BME280;25829;50.228;18.936;2023-02-04T00:56:42;97781.06;;;2.33;82.01
40117;BME280;25829;50.228;18.936;2023-02-04T00:59:43;97775.50;;;2.36;81.94
40117;BME280;25829;50.228;18.936;2023-02-04T01:02:44;97781.53;;;2.37;81.88
40117;BME280;25829;50.228;18.936;2023-02-04T01:05:48;97762.97;;;2.40;81.81
40117;BME280;25829;50.228;18.936;2023-02-04T01:09:04;97766.72;;;2.37;81.81
40117;BME280;25829;50.228;18.936;2023-02-04T01:12:10;97767.84;;;2.35;81.94
40117;BME280;25829;50.228;18.936;2023-02-04T01:15:14;97768.69;;;2.35;82.37
40117;BME280;25829;50.228;18.936;2023-02-04T01:18:15;97750.63;;;2.34;82.12
40117;BME280;25829;50.228;18.936;2023-02-04T01:21:15;97750.28;;;2.37;82.03
40117;BME280;25829;50.228;18.936;2023-02-04T01:24:16;97743.97;;;2.31;81.88
40117;BME280;25829;50.228;18.936;2023-02-04T01:27:36;97742.00;;;2.33;82.18
40117;BME280;25829;50.228;18.936;2023-02-04T01:30:37;97735.34;;;2.31;82.16
40117;BME280;25829;50.228;18.936;2023-02-04T01:33:38;97735.19;;;2.32;82.24
40117;BME280;25829;50.228;18.936;2023-02-04T01:36:39;97734.41;;;2.32;82.04
40117;BME280;25829;50.228;18.936;2023-02-04T01:39:39;97753.22;;;2.34;81.99
40117;BME280;25829;50.228;18.936;2023-02-04T01:42:41;97765.25;;;2.35;82.26
40117;BME280;25829;50.228;18.936;2023-02-04T01:45:45;97758.44;;;2.34;81.92
40117;BME280;25829;50.228;18.936;2023-02-04T01:48:47;97762.19;;;2.31;82.13
40117;BME280;25829;50.228;18.936;2023-02-04T01:51:48;97790.34;;;2.27;81.82
40117;BME280;25829;50.228;18.936;2023-02-04T01:54:49;97784.22;;;2.20;81.41
40117;BME280;25829;50.228;18.936;2023-02-04T01:57:51;97781.31;;;2.15;81.15
40117;BME280;25829;50.228;18.936;2023-02-04T02:00:58;97779.88;;;2.13;81.01
40117;BME280;25829;50.228;18.936;2023-02-04T02:04:02;97780.19;;;2.10;80.30
40117;BME280;25829;50.228;18.936;2023-02-04T02:07:04;97775.34;;;2.07;80.44
40117;BME280;25829;50.228;18.936;2023-02-04T02:10:11;97769.66;;;2.03;80.25
40117;BME280;25829;50.228;18.936;2023-02-04T02:13:15;97784.16;;;1.97;79.43
40117;BME280;25829;50.228;18.936;2023-02-04T02:16:16;97786.78;;;1.97;79.64
40117;BME280;25829;50.228;18.936;2023-02-04T02:19:26;97801.72;;;1.95;79.29
40117;BME280;25829;50.228;18.936;2023-02-04T02:22:58;97807.91;;;1.94;79.32
40117;BME280;25829;50.228;18.936;2023-02-04T02:26:01;97808.75;;;1.87;79.48
40117;BME280;25829;50.228;18.936;2023-02-04T02:29:08;97823.56;;;1.78;78.86
40117;BME280;25829;50.228;18.936;2023-02-04T02:32:10;97834.47;;;1.65;78.96
40117;BME280;25829;50.228;18.936;2023-02-04T02:35:12;97841.31;;;1.58;78.81
40117;BME280;25829;50.228;18.936;2023-02-04T02:38:15;97848.34;;;1.49;79.11
40117;BME280;25829;50.228;18.936;2023-02-04T02:41:16;97846.06;;;1.46;79.12
40117;BME280;25829;50.228;18.936;2023-02-04T02:44:17;97856.13;;;1.41;78.88
40117;BME280;25829;50.228;18.936;2023-02-04T02:47:22;97859.41;;;1.35;78.56
40117;BME280;25829;50.228;18.936;2023-02-04T02:50:26;97867.97;;;1.27;78.64
40117;BME280;25829;50.228;18.936;2023-02-04T02:53:31;97874.00;;;1.20;78.98
40117;BME280;25829;50.228;18.936;2023-02-04T02:56:32;97878.38;;;1.19;78.96
40117;BME280;25829;50.228;18.936;2023-02-04T02:59:33;97879.38;;;1.18;78.84
40117;BME280;25829;50.228;18.936;2023-02-04T03:02:34;97879.84;;;1.14;78.74
40117;BME280;25829;50.228;18.936;2023-02-04T03:05:46;97880.34;;;1.17;78.92
40117;BME280;25829;50.228;18.936;2023-02-04T03:08:51;97887.31;;;1.08;78.93
40117;BME280;25829;50.228;18.936;2023-02-04T03:11:54;97893.94;;;1.03;79.16
40117;BME280;25829;50.228;18.936;2023-02-04T03:14:55;97899.31;;;1.01;78.97
40117;BME280;25829;50.228;18.936;2023-02-04T03:17:58;97903.53;;;0.94;78.82
40117;BME280;25829;50.228;18.936;2023-02-04T03:20:59;97905.28;;;0.86;78.96
40117;BME280;25829;50.228;18.936;2023-02-04T03:24:06;97906.59;;;0.81;79.44
40117;BME280;25829;50.228;18.936;2023-02-04T03:27:07;97912.09;;;0.78;79.07
40117;BME280;25829;50.228;18.936;2023-02-04T03:30:08;97920.34;;;0.74;79.38
40117;BME280;25829;50.228;18.936;2023-02-04T03:33:12;97915.84;;;0.76;79.63
40117;BME280;25829;50.228;18.936;2023-02-04T03:36:13;97930.91;;;0.72;79.85
40117;BME280;25829;50.228;18.936;2023-02-04T03:39:14;97940.47;;;0.72;79.78
40117;BME280;25829;50.228;18.936;2023-02-04T03:42:15;97949.53;;;0.68;79.64
40117;BME280;25829;50.228;18.936;2023-02-04T03:45:20;97960.09;;;0.66;79.68
40117;BME280;25829;50.228;18.936;2023-02-04T03:48:21;97963.81;;;0.64;79.97
40117;BME280;25829;50.228;18.936;2023-02-04T03:51:22;97972.06;;;0.59;79.91
40117;BME280;25829;50.228;18.936;2023-02-04T03:54:23;97995.44;;;0.59;79.70
40117;BME280;25829;50.228;18.936;2023-02-04T03:57:24;98006.13;;;0.56;79.90
40117;BME280;25829;50.228;18.936;2023-02-04T04:00:25;98019.41;;;0.53;79.57
40117;BME280;25829;50.228;18.936;2023-02-04T04:03:25;98040.56;;;0.40;79.51
40117;BME280;25829;50.228;18.936;2023-02-04T04:06:26;98058.03;;;0.30;79.57
40117;BME280;25829;50.228;18.936;2023-02-04T04:09:27;98089.66;;;0.07;79.62
40117;BME280;25829;50.228;18.936;2023-02-04T04:12:29;98108.69;;;-0.20;79.44
40117;BME280;25829;50.228;18.936;2023-02-04T04:15:29;98136.78;;;-0.43;80.19
40117;BME280;25829;50.228;18.936;2023-02-04T04:18:31;98180.81;;;-0.61;80.68
40117;BME280;25829;50.228;18.936;2023-02-04T04:21:35;98185.47;;;-0.74;79.89
40117;BME280;25829;50.228;18.936;2023-02-04T04:24:38;98216.50;;;-0.92;79.31
40117;BME280;25829;50.228;18.936;2023-02-04T04:27:39;98223.63;;;-1.13;79.64
40117;BME280;25829;50.228;18.936;2023-02-04T04:30:40;98248.84;;;-1.25;79.70
40117;BME280;25829;50.228;18.936;2023-02-04T04:33:44;98278.41;;;-1.47;79.72
40117;BME280;25829;50.228;18.936;2023-02-04T04:36:44;98301.66;;;-1.57;80.46
40117;BME280;25829;50.228;18.936;2023-02-04T04:39:48;98324.13;;;-1.67;80.79
40117;BME280;25829;50.228;18.936;2023-02-04T04:42:48;98344.91;;;-1.78;80.99
40117;BME280;25829;50.228;18.936;2023-02-04T04:45:49;98355.53;;;-1.81;81.49
40117;BME280;25829;50.228;18.936;2023-02-04T04:48:50;98364.50;;;-1.85;80.97
40117;BME280;25829;50.228;18.936;2023-02-04T04:51:53;98382.06;;;-1.79;81.43
40117;BME280;25829;50.228;18.936;2023-02-04T04:54:54;98402.22;;;-1.83;80.87
40117;BME280;25829;50.228;18.936;2023-02-04T04:57:55;98412.56;;;-1.83;81.39
40117;BME280;25829;50.228;18.936;2023-02-04T05:00:56;98439.16;;;-1.92;80.68
40117;BME280;25829;50.228;18.936;2023-02-04T05:03:56;98450.63;;;-1.94;79.80
40117;BME280;25829;50.228;18.936;2023-02-04T05:06:57;98468.41;;;-2.01;80.20
40117;BME280;25829;50.228;18.936;2023-02-04T05:09:58;98474.25;;;-1.99;80.51
40117;BME280;25829;50.228;18.936;2023-02-04T05:12:59;98503.25;;;-1.95;80.50
40117;BME280;25829;50.228;18.936;2023-02-04T05:16:03;98519.72;;;-1.96;80.29
40117;BME280;25829;50.228;18.936;2023-02-04T05:19:03;98551.22;;;-2.03;79.61
40117;BME280;25829;50.228;18.936;2023-02-04T05:22:07;98570.66;;;-2.08;80.35
40117;BME280;25829;50.228;18.936;2023-02-04T05:25:08;98580.16;;;-2.09;80.12
40117;BME280;25829;50.228;18.936;2023-02-04T05:28:09;98606.53;;;-2.15;79.88
40117;BME280;25829;50.228;18.936;2023-02-04T05:31:16;98617.09;;;-2.18;79.52
40117;BME280;25829;50.228;18.936;2023-02-04T05:34:16;98656.50;;;-2.25;80.27
40117;BME280;25829;50.228;18.936;2023-02-04T05:37:20;98674.47;;;-2.35;79.49
40117;BME280;25829;50.228;18.936;2023-02-04T05:40:20;98691.59;;;-2.34;80.25
40117;BME280;25829;50.228;18.936;2023-02-04T05:43:22;98706.06;;;-2.32;80.19
40117;BME280;25829;50.228;18.936;2023-02-04T05:46:23;98731.19;;;-2.34;80.07
40117;BME280;25829;50.228;18.936;2023-02-04T05:49:25;98746.69;;;-2.34;79.32
40117;BME280;25829;50.228;18.936;2023-02-04T05:52:25;98758.56;;;-2.31;79.42
40117;BME280;25829;50.228;18.936;2023-02-04T05:55:26;98776.06;;;-2.23;79.36
40117;BME280;25829;50.228;18.936;2023-02-04T05:58:27;98779.34;;;-2.21;79.00
40117;BME280;25829;50.228;18.936;2023-02-04T06:01:32;98817.75;;;-2.28;78.11
40117;BME280;25829;50.228;18.936;2023-02-04T06:04:36;98841.59;;;-2.24;78.14
40117;BME280;25829;50.228;18.936;2023-02-04T06:07:36;98865.31;;;-2.31;77.54
40117;BME280;25829;50.228;18.936;2023-02-04T06:10:37;98858.28;;;-2.29;77.57
40117;BME280;25829;50.228;18.936;2023-02-04T06:13:38;98886.81;;;-2.30;76.83
40117;BME280;25829;50.228;18.936;2023-02-04T06:16:39;98910.06;;;-2.30;76.53
40117;BME280;25829;50.228;18.936;2023-02-04T06:19:39;98926.91;;;-2.24;76.17
40117;BME280;25829;50.228;18.936;2023-02-04T06:22:40;98942.19;;;-2.21;75.99
40117;BME280;25829;50.228;18.936;2023-02-04T06:25:41;98947.22;;;-2.20;75.62
40117;BME280;25829;50.228;18.936;2023-02-04T06:28:44;98962.50;;;-2.28;75.38
40117;BME280;25829;50.228;18.936;2023-02-04T06:31:45;98952.38;;;-2.31;75.03
40117;BME280;25829;50.228;18.936;2023-02-04T06:34:48;98976.56;;;-2.32;75.23
40117;BME280;25829;50.228;18.936;2023-02-04T06:37:52;99005.59;;;-2.29;75.71
40117;BME280;25829;50.228;18.936;2023-02-04T06:40:53;99026.16;;;-2.27;75.60
40117;BME280;25829;50.228;18.936;2023-02-04T06:43:54;99041.28;;;-2.34;75.24
40117;BME280;25829;50.228;18.936;2023-02-04T06:46:55;99043.75;;;-2.32;76.09
40117;BME280;25829;50.228;18.936;2023-02-04T06:49:58;99067.47;;;-2.38;75.70
40117;BME280;25829;50.228;18.936;2023-02-04T06:52:59;99074.78;;;-2.32;75.89
40117;BME280;25829;50.228;18.936;2023-02-04T06:56:06;99089.34;;;-2.31;75.42
40117;BME280;25829;50.228;18.936;2023-02-04T06:59:07;99098.31;;;-2.24;75.66
40117;BME280;25829;50.228;18.936;2023-02-04T07:02:09;99108.75;;;-2.25;74.29
40117;BME280;25829;50.228;18.936;2023-02-04T07:05:11;99132.84;;;-2.25;74.32
40117;BME280;25829;50.228;18.936;2023-02-04T07:08:38;99156.59;;;-2.20;74.96
40117;BME280;25829;50.228;18.936;2023-02-04T07:11:39;99162.78;;;-2.22;73.70
40117;BME280;25829;50.228;18.936;2023-02-04T07:14:39;99172.81;;;-2.18;74.08
40117;BME280;25829;50.228;18.936;2023-02-04T07:17:40;99183.88;;;-2.16;74.06
40117;BME280;25829;50.228;18.936;2023-02-04T07:20:41;99203.25;;;-2.21;73.48
40117;BME280;25829;50.228;18.936;2023-02-04T07:23:42;99207.25;;;-2.17;73.72
40117;BME280;25829;50.228;18.936;2023-02-04T07:26:42;99221.34;;;-2.21;73.32
40117;BME280;25829;50.228;18.936;2023-02-04T07:29:43;99221.81;;;-2.16;73.68
40117;BME280;25829;50.228;18.936;2023-02-04T07:32:44;99229.47;;;-2.15;74.03
40117;BME280;25829;50.228;18.936;2023-02-04T07:35:44;99240.22;;;-2.08;74.08
40117;BME280;25829;50.228;18.936;2023-02-04T07:38:45;99253.44;;;-2.13;73.38
40117;BME280;25829;50.228;18.936;2023-02-04T07:41:46;99256.97;;;-2.14;72.52
40117;BME280;25829;50.228;18.936;2023-02-04T07:44:49;99263.19;;;-2.16;70.93
40117;BME280;25829;50.228;18.936;2023-02-04T07:47:50;99270.22;;;-2.18;70.50
40117;BME280;25829;50.228;18.936;2023-02-04T07:51:02;99280.38;;;-2.15;71.19
40117;BME280;25829;50.228;18.936;2023-02-04T07:54:03;99288.50;;;-2.09;71.34
40117;BME280;25829;50.228;18.936;2023-02-04T07:57:04;99292.97;;;-2.11;70.44
40117;BME280;25829;50.228;18.936;2023-02-04T08:00:05;99307.84;;;-2.01;71.47
40117;BME280;25829;50.228;18.936;2023-02-04T08:03:14;99318.06;;;-2.00;70.98
40117;BME280;25829;50.228;18.936;2023-02-04T08:06:15;99324.34;;;-1.91;71.80
40117;BME280;25829;50.228;18.936;2023-02-04T08:09:15;99334.19;;;-1.84;71.70
40117;BME280;25829;50.228;18.936;2023-02-04T08:12:16;99336.56;;;-1.81;71.57
40117;BME280;25829;50.228;18.936;2023-02-04T08:15:17;99351.00;;;-1.78;71.53
40117;BME280;25829;50.228;18.936;2023-02-04T08:18:18;99348.22;;;-1.75;71.68
40117;BME280;25829;50.228;18.936;2023-02-04T08:21:18;99362.38;;;-1.68;72.27
40117;BME280;25829;50.228;18.936;2023-02-04T08:24:19;99368.06;;;-1.63;71.73
40117;BME280;25829;50.228;18.936;2023-02-04T08:27:20;99386.78;;;-1.59;71.40
40117;BME280;25829;50.228;18.936;2023-02-04T08:30:21;99399.72;;;-1.59;71.03
40117;BME280;25829;50.228;18.936;2023-02-04T08:33:23;99409.78;;;-1.67;69.56
40117;BME280;25829;50.228;18.936;2023-02-04T08:36:23;99421.78;;;-1.66;69.92
40117;BME280;25829;50.228;18.936;2023-02-04T08:39:24;99431.94;;;-1.63;70.01
40117;BME280;25829;50.228;18.936;2023-02-04T08:42:25;99432.09;;;-1.53;70.88
40117;BME280;25829;50.228;18.936;2023-02-04T08:45:26;99443.59;;;-1.45;70.53
40117;BME280;25829;50.228;18.936;2023-02-04T08:48:27;99447.94;;;-1.45;69.05
40117;BME280;25829;50.228;18.936;2023-02-04T08:51:28;99448.78;;;-1.45;69.42
40117;BME280;25829;50.228;18.936;2023-02-04T08:54:29;99456.53;;;-1.45;69.34
40117;BME280;25829;50.228;18.936;2023-02-04T08:57:31;99458.38;;;-1.47;68.79
40117;BME280;25829;50.228;18.936;2023-02-04T09:01:18;99466.97;;;-1.34;69.52
40117;BME280;25829;50.228;18.936;2023-02-04T09:04:37;99465.44;;;-1.12;69.39
40117;BME280;25829;50.228;18.936;2023-02-04T09:07:49;99483.97;;;-1.05;69.36
40117;BME280;25829;50.228;18.936;2023-02-04T09:10:49;99484.44;;;-1.24;69.83
40117;BME280;25829;50.228;18.936;2023-02-04T09:13:50;99490.66;;;-1.27;70.97
40117;BME280;25829;50.228;18.936;2023-02-04T09:16:56;99495.63;;;-1.24;70.92
40117;BME280;25829;50.228;18.936;2023-02-04T09:19:57;99493.97;;;-1.25;70.36
40117;BME280;25829;50.228;18.936;2023-02-04T09:23:02;99515.59;;;-1.13;69.97
40117;BME280;25829;50.228;18.936;2023-02-04T09:26:04;99523.56;;;-1.16;68.71
40117;BME280;25829;50.228;18.936;2023-02-04T09:29:53;99528.72;;;-1.03;68.97
40117;BME280;25829;50.228;18.936;2023-02-04T09:33:29;99538.44;;;-0.94;67.54
40117;BME280;25829;50.228;18.936;2023-02-04T09:36:30;99555.88;;;-0.96;67.15
40117;BME280;25829;50.228;18.936;2023-02-04T09:43:01;99567.22;;;-0.73;66.05
40117;BME280;25829;50.228;18.936;2023-02-04T09:46:02;99558.47;;;-0.60;64.62
40117;BME280;25829;50.228;18.936;2023-02-04T09:49:20;99555.19;;;-0.26;64.70
40117;BME280;25829;50.228;18.936;2023-02-04T09:52:40;99569.19;;;-0.05;65.88
40117;BME280;25829;50.228;18.936;2023-02-04T09:55:55;99587.34;;;-0.05;63.94
40117;BME280;25829;50.228;18.936;2023-02-04T09:59:37;99589.84;;;-0.03;64.18
40117;BME280;25829;50.228;18.936;2023-02-04T10:02:38;99588.97;;;0.20;63.68
40117;BME280;25829;50.228;18.936;2023-02-04T10:05:39;99586.88;;;0.36;63.48
40117;BME280;25829;50.228;18.936;2023-02-04T10:08:42;99594.22;;;0.43;62.83
40117;BME280;25829;50.228;18.936;2023-02-04T10:11:46;99593.13;;;0.34;62.75
40117;BME280;25829;50.228;18.936;2023-02-04T10:14:48;99596.50;;;0.23;63.46
40117;BME280;25829;50.228;18.936;2023-02-04T10:17:52;99607.69;;;0.12;62.10
40117;BME280;25829;50.228;18.936;2023-02-04T10:21:26;99602.69;;;-0.26;61.25
40117;BME280;25829;50.228;18.936;2023-02-04T10:24:27;99608.59;;;-0.48;61.88
40117;BME280;25829;50.228;18.936;2023-02-04T10:27:29;99607.78;;;-0.48;62.17
40117;BME280;25829;50.228;18.936;2023-02-04T10:30:45;99617.06;;;-0.46;61.83
40117;BME280;25829;50.228;18.936;2023-02-04T10:33:46;99622.44;;;-0.36;62.84
40117;BME280;25829;50.228;18.936;2023-02-04T10:36:52;99618.44;;;-0.16;62.20
40117;BME280;25829;50.228;18.936;2023-02-04T10:39:53;99631.34;;;-0.27;59.21
40117;BME280;25829;50.228;18.936;2023-02-04T10:42:55;99636.63;;;-0.29;59.19
40117;BME280;25829;50.228;18.936;2023-02-04T10:45:59;99636.75;;;-0.06;59.46
40117;BME280;25829;50.228;18.936;2023-02-04T10:49:05;99637.78;;;0.50;61.36
40117;BME280;25829;50.228;18.936;2023-02-04T10:52:16;99646.97;;;1.12;59.76
40117;BME280;25829;50.228;18.936;2023-02-04T10:55:21;99655.38;;;1.38;57.79
40117;BME280;25829;50.228;18.936;2023-02-04T10:58:26;99653.81;;;1.13;57.89
40117;BME280;25829;50.228;18.936;2023-02-04T11:05:32;99672.56;;;0.48;58.14
40117;BME280;25829;50.228;18.936;2023-02-04T11:08:35;99668.06;;;0.27;57.08
40117;BME280;25829;50.228;18.936;2023-02-04T11:11:37;99679.25;;;0.04;56.83
40117;BME280;25829;50.228;18.936;2023-02-04T11:14:38;99670.81;;;-0.11;58.24
40117;BME280;25829;50.228;18.936;2023-02-04T11:17:39;99667.72;;;-0.16;57.77
40117;BME280;25829;50.228;18.936;2023-02-04T11:20:40;99677.03;;;-0.14;59.00
40117;BME280;25829;50.228;18.936;2023-02-04T11:23:41;99684.44;;;-0.20;57.63
40117;BME280;25829;50.228;18.936;2023-02-04T11:26:44;99689.66;;;-0.33;58.13
40117;BME280;25829;50.228;18.936;2023-02-04T11:29:45;99682.63;;;-0.44;56.92
40117;BME280;25829;50.228;18.936;2023-02-04T11:33:04;99692.50;;;-0.49;57.19
40117;BME280;25829;50.228;18.936;2023-02-04T11:36:08;99692.91;;;-0.55;58.94
40117;BME280;25829;50.228;18.936;2023-02-04T11:39:15;99704.31;;;-0.45;58.95
40117;BME280;25829;50.228;18.936;2023-02-04T11:45:30;99709.06;;;-0.39;57.44
40117;BME280;25829;50.228;18.936;2023-02-04T11:48:34;99707.44;;;-0.52;56.66
40117;BME280;25829;50.228;18.936;2023-02-04T11:51:35;99700.28;;;-0.62;56.13
40117;BME280;25829;50.228;18.936;2023-02-04T11:54:39;99722.16;;;-0.66;56.75
40117;BME280;25829;50.228;18.936;2023-02-04T11:57:42;99715.41;;;-0.68;57.58
40117;BME280;25829;50.228;18.936;2023-02-04T12:00:43;99723.19;;;-0.68;56.48
40117;BME280;25829;50.228;18.936;2023-02-04T12:03:49;99718.84;;;-0.68;57.74
40117;BME280;25829;50.228;18.936;2023-02-04T12:06:59;99724.09;;;-0.56;58.19
40117;BME280;25829;50.228;18.936;2023-02-04T12:13:21;99723.28;;;-0.57;56.95
40117;BME280;25829;50.228;18.936;2023-02-04T12:16:23;99727.84;;;-0.61;57.31
40117;BME280;25829;50.228;18.936;2023-02-04T12:19:25;99736.97;;;-0.68;56.44
40117;BME280;25829;50.228;18.936;2023-02-04T12:22:25;99731.69;;;-0.79;57.76
40117;BME280;25829;50.228;18.936;2023-02-04T12:25:26;99736.88;;;-0.79;56.82
40117;BME280;25829;50.228;18.936;2023-02-04T12:28:27;99741.75;;;-0.87;56.89
40117;BME280;25829;50.228;18.936;2023-02-04T12:31:29;99753.75;;;-0.99;57.32
40117;BME280;25829;50.228;18.936;2023-02-04T12:34:29;99753.34;;;-1.05;57.21
40117;BME280;25829;50.228;18.936;2023-02-04T12:37:30;99757.28;;;-1.00;58.93
40117;BME280;25829;50.228;18.936;2023-02-04T12:40:31;99749.63;;;-0.89;58.62
40117;BME280;25829;50.228;18.936;2023-02-04T12:43:32;99747.13;;;-0.77;59.02
40117;BME280;25829;50.228;18.936;2023-02-04T12:46:33;99753.38;;;-0.80;57.85
40117;BME280;25829;50.228;18.936;2023-02-04T12:49:34;99752.63;;;-0.82;57.73
40117;BME280;25829;50.228;18.936;2023-02-04T12:52:57;99758.41;;;-0.91;58.38
40117;BME280;25829;50.228;18.936;2023-02-04T12:55:58;99744.66;;;-0.92;58.79
40117;BME280;25829;50.228;18.936;2023-02-04T12:58:58;99768.38;;;-0.85;59.34
40117;BME280;25829;50.228;18.936;2023-02-04T13:01:59;99773.16;;;-0.79;59.22
40117;BME280;25829;50.228;18.936;2023-02-04T13:05:00;99781.13;;;-0.82;58.65
40117;BME280;25829;50.228;18.936;2023-02-04T13:08:01;99777.81;;;-0.84;58.30
40117;BME280;25829;50.228;18.936;2023-02-04T13:11:01;99785.19;;;-0.91;58.30
40117;BME280;25829;50.228;18.936;2023-02-04T13:14:02;99792.09;;;-0.91;59.45
40117;BME280;25829;50.228;18.936;2023-02-04T13:17:03;99790.66;;;-0.95;58.62
40117;BME280;25829;50.228;18.936;2023-02-04T13:20:11;99787.13;;;-0.94;59.81
40117;BME280;25829;50.228;18.936;2023-02-04T13:23:12;99790.38;;;-0.91;60.44
40117;BME280;25829;50.228;18.936;2023-02-04T13:26:14;99806.75;;;-0.90;59.98
40117;BME280;25829;50.228;18.936;2023-02-04T13:29:15;99810.88;;;-0.88;60.36
40117;BME280;25829;50.228;18.936;2023-02-04T13:32:15;99830.38;;;-0.82;60.83
40117;BME280;25829;50.228;18.936;2023-02-04T13:35:16;99816.75;;;-0.98;58.61
40117;BME280;25829;50.228;18.936;2023-02-04T13:38:18;99817.47;;;-1.09;59.44
40117;BME280;25829;50.228;18.936;2023-02-04T13:41:19;99814.59;;;-1.04;59.36
40117;BME280;25829;50.228;18.936;2023-02-04T13:44:20;99828.16;;;-1.01;59.78
40117;BME280;25829;50.228;18.936;2023-02-04T13:47:21;99830.13;;;-1.04;58.84
40117;BME280;25829;50.228;18.936;2023-02-04T13:50:30;99831.22;;;-1.09;58.35
40117;BME280;25829;50.228;18.936;2023-02-04T13:53:31;99833.50;;;-1.17;58.70
40117;BME280;25829;50.228;18.936;2023-02-04T13:56:32;99829.44;;;-1.21;59.19
40117;BME280;25829;50.228;18.936;2023-02-04T13:59:33;99832.13;;;-1.22;59.21
40117;BME280;25829;50.228;18.936;2023-02-04T14:02:33;99842.16;;;-1.31;59.39
40117;BME280;25829;50.228;18.936;2023-02-04T14:05:37;99844.75;;;-1.31;60.04
40117;BME280;25829;50.228;18.936;2023-02-04T14:08:37;99844.94;;;-1.34;60.86
40117;BME280;25829;50.228;18.936;2023-02-04T14:11:38;99844.00;;;-1.33;61.05
40117;BME280;25829;50.228;18.936;2023-02-04T14:14:39;99849.81;;;-1.29;61.75
40117;BME280;25829;50.228;18.936;2023-02-04T14:17:40;99853.59;;;-1.20;62.04
40117;BME280;25829;50.228;18.936;2023-02-04T14:20:41;99848.91;;;-1.15;61.44
40117;BME280;25829;50.228;18.936;2023-02-04T14:23:43;99865.31;;;-1.15;61.38
40117;BME280;25829;50.228;18.936;2023-02-04T14:26:45;99860.03;;;-1.13;62.02
40117;BME280;25829;50.228;18.936;2023-02-04T14:29:45;99869.63;;;-1.15;61.70
40117;BME280;25829;50.228;18.936;2023-02-04T14:32:46;99874.63;;;-1.12;62.78
40117;BME280;25829;50.228;18.936;2023-02-04T14:35:47;99874.34;;;-1.08;62.30
40117;BME280;25829;50.228;18.936;2023-02-04T14:38:48;99870.31;;;-0.99;63.34
40117;BME280;25829;50.228;18.936;2023-02-04T14:41:49;99873.84;;;-1.00;62.73
40117;BME280;25829;50.228;18.936;2023-02-04T14:44:50;99875.25;;;-1.09;62.89
40117;BME280;25829;50.228;18.936;2023-02-04T14:47:50;99860.66;;;-1.10;62.93
40117;BME280;25829;50.228;18.936;2023-02-04T14:50:52;99857.13;;;-1.09;63.36
40117;BME280;25829;50.228;18.936;2023-02-04T14:53:52;99861.22;;;-1.04;63.06
40117;BME280;25829;50.228;18.936;2023-02-04T14:56:53;99870.25;;;-0.97;63.48
40117;BME280;25829;50.228;18.936;2023-02-04T14:59:54;99886.22;;;-0.91;64.00
40117;BME280;25829;50.228;18.936;2023-02-04T15:02:55;99894.28;;;-0.95;63.69
40117;BME280;25829;50.228;18.936;2023-02-04T15:05:55;99902.66;;;-1.04;66.41
40117;BME280;25829;50.228;18.936;2023-02-04T15:08:56;99899.56;;;-1.24;67.25
40117;BME280;25829;50.228;18.936;2023-02-04T15:11:57;99912.44;;;-1.37;68.75
40117;BME280;25829;50.228;18.936;2023-02-04T15:14:58;99912.91;;;-1.44;68.70
40117;BME280;25829;50.228;18.936;2023-02-04T15:17:59;99921.16;;;-1.52;69.59
40117;BME280;25829;50.228;18.936;2023-02-04T15:21:00;99914.31;;;-1.67;70.42
40117;BME280;25829;50.228;18.936;2023-02-04T15:24:01;99916.44;;;-1.88;70.79
40117;BME280;25829;50.228;18.936;2023-02-04T15:27:02;99921.63;;;-2.03;71.44
40117;BME280;25829;50.228;18.936;2023-02-04T15:30:03;99921.81;;;-2.06;71.58
40117;BME280;25829;50.228;18.936;2023-02-04T15:33:03;99931.06;;;-2.01;71.24
40117;BME280;25829;50.228;18.936;2023-02-04T15:36:04;99935.19;;;-1.99;71.72
40117;BME280;25829;50.228;18.936;2023-02-04T15:39:05;99930.97;;;-2.00;71.63
40117;BME280;25829;50.228;18.936;2023-02-04T15:42:06;99935.31;;;-2.00;71.88
40117;BME280;25829;50.228;18.936;2023-02-04T15:45:07;99935.19;;;-1.99;71.59
40117;BME280;25829;50.228;18.936;2023-02-04T15:48:09;99940.47;;;-2.00;71.26
40117;BME280;25829;50.228;18.936;2023-02-04T15:51:10;99927.53;;;-2.00;71.38
40117;BME280;25829;50.228;18.936;2023-02-04T15:54:11;99924.22;;;-2.03;71.02
40117;BME280;25829;50.228;18.936;2023-02-04T15:57:11;99933.53;;;-2.00;71.35
40117;BME280;25829;50.228;18.936;2023-02-04T16:00:15;99934.31;;;-1.98;70.89
40117;BME280;25829;50.228;18.936;2023-02-04T16:03:16;99935.19;;;-1.99;71.25
40117;BME280;25829;50.228;18.936;2023-02-04T16:06:16;99933.25;;;-1.95;70.87
40117;BME280;25829;50.228;18.936;2023-02-04T16:09:17;99934.66;;;-1.90;70.58
40117;BME280;25829;50.228;18.936;2023-02-04T16:12:18;99938.19;;;-1.91;70.35
40117;BME280;25829;50.228;18.936;2023-02-04T16:15:18;99940.78;;;-1.91;69.90